Time;durP1;ratioP1;P1;durP2;ratioP2;P2;SDS_P1;SDS_P2;PMS_P1;PMS_P2;Temp;Humidity;BMP_temperature;BMP_pressure;BME280_temperature;BME280_humidity;BME280_pressure;Samples;Min_cycle;Max_cycle;Signal;HPM_P1;HPM_P2
2024/04/12 00:02:44;;;;;;;;;34.00;26.67;;;;;;;;6493463;39;8983;-61
2024/04/12 00:08:49;;;;;;;;;28.33;28.33;;;;;;;;6492525;46;8878;-61
2024/04/12 00:14:52;;;;;;;;;28.33;26.67;;;;;;;;6493208;46;8836;-62
2024/04/12 00:21:01;;;;;;;;;26.00;23.67;;;;;;;;6492962;39;8934;-62
2024/04/12 00:27:05;;;;;;;;;28.00;28.00;;;;;;;;6492308;39;9042;-61
2024/04/12 00:33:11;;;;;;;;;29.67;27.67;;;;;;;;6493647;46;8823;-62
2024/04/12 00:39:35;;;;;;;;;29.67;28.33;;;;;;;;6493367;39;8907;-62
2024/04/12 00:45:39;;;;;;;;;27.00;26.00;;;;;;;;6493553;39;9001;-62
2024/04/12 00:51:49;;;;;;;;;29.33;27.67;;;;;;;;6493491;39;8922;-62
2024/04/12 00:57:52;;;;;;;;;31.67;25.33;;;;;;;;6493697;39;8862;-61
2024/04/12 01:03:55;;;;;;;;;30.00;26.00;;;;;;;;6493134;46;8912;-61
2024/04/12 01:09:57;;;;;;;;;24.00;23.33;;;;;;;;6492530;46;8906;-62
2024/04/12 01:15:59;;;;;;;;;25.33;25.00;;;;;;;;6493933;39;8888;-61
2024/04/12 01:22:00;;;;;;;;;27.00;25.67;;;;;;;;6492609;39;8930;-62
2024/04/12 01:28:05;;;;;;;;;28.67;27.33;;;;;;;;6494405;31;8808;-62
2024/04/12 01:34:13;;;;;;;;;26.33;25.00;;;;;;;;6492379;46;8867;-61
2024/04/12 01:40:16;;;;;;;;;31.67;28.33;;;;;;;;6492680;39;8974;-62
2024/04/12 01:46:26;;;;;;;;;26.67;26.00;;;;;;;;6492681;39;8878;-60
2024/04/12 01:52:27;;;;;;;;;32.33;30.33;;;;;;;;6491934;46;8983;-64
2024/04/12 01:58:29;;;;;;;;;30.67;28.67;;;;;;;;6493160;39;8803;-63
2024/04/12 02:04:34;;;;;;;;;31.33;27.00;;;;;;;;6492584;39;9671;-60
2024/04/12 02:10:41;;;;;;;;;30.33;30.00;;;;;;;;6492226;39;8997;-61
2024/04/12 02:16:43;;;;;;;;;35.00;31.00;;;;;;;;6494586;46;8905;-62
2024/04/12 02:22:45;;;;;;;;;33.00;31.00;;;;;;;;6493863;46;8939;-62
2024/04/12 02:28:47;;;;;;;;;30.00;29.67;;;;;;;;6495140;39;8842;-62
2024/04/12 02:34:49;;;;;;;;;28.33;28.33;;;;;;;;6494614;39;8985;-61
2024/04/12 02:40:52;;;;;;;;;29.67;27.33;;;;;;;;6495086;31;8929;-61
2024/04/12 02:46:54;;;;;;;;;33.00;31.67;;;;;;;;6494603;39;8963;-61
2024/04/12 02:52:55;;;;;;;;;35.67;33.67;;;;;;;;6494464;39;8972;-61
2024/04/12 02:58:57;;;;;;;;;37.33;34.67;;;;;;;;6494262;39;8934;-61
2024/04/12 03:05:01;;;;;;;;;36.33;34.00;;;;;;;;6494364;46;8891;-61
2024/04/12 03:11:12;;;;;;;;;36.25;33.75;;;;;;;;6493522;46;8897;-61
2024/04/12 03:17:14;;;;;;;;;37.33;35.33;;;;;;;;6494123;39;9535;-61
2024/04/12 03:23:16;;;;;;;;;38.67;34.33;;;;;;;;6492579;39;8910;-61
2024/04/12 03:29:17;;;;;;;;;41.00;34.00;;;;;;;;6493685;39;8890;-61
2024/04/12 03:35:20;;;;;;;;;34.00;32.50;;;;;;;;6493459;39;8881;-61
2024/04/12 03:41:21;;;;;;;;;37.00;34.75;;;;;;;;6494493;39;9392;-61
2024/04/12 03:47:27;;;;;;;;;48.50;39.50;;;;;;;;6493470;39;8874;-62
2024/04/12 03:53:30;;;;;;;;;46.75;37.25;;;;;;;;6493742;39;8954;-61
2024/04/12 03:59:37;;;;;;;;;47.50;39.00;;;;;;;;6493930;39;9148;-62
2024/04/12 04:05:41;;;;;;;;;44.50;38.25;;;;;;;;6471960;39;9050;-62
2024/04/12 04:12:14;;;;;;;;;44.00;40.00;;;;;;;;6493064;46;9019;-62
2024/04/12 04:18:25;;;;;;;;;43.50;35.50;;;;;;;;6493678;39;8883;-63
2024/04/12 04:24:37;;;;;;;;;43.25;39.25;;;;;;;;6494559;39;8988;-61
2024/04/12 04:30:41;;;;;;;;;48.50;39.00;;;;;;;;6494168;39;8942;-62
2024/04/12 04:36:50;;;;;;;;;45.75;40.50;;;;;;;;6492865;39;8957;-62
2024/04/12 04:42:55;;;;;;;;;44.75;38.75;;;;;;;;6494726;46;9025;-61
2024/04/12 04:49:04;;;;;;;;;43.50;36.50;;;;;;;;6493008;31;8960;-62
2024/04/12 04:55:14;;;;;;;;;44.00;39.50;;;;;;;;6494193;31;9192;-62
2024/04/12 05:01:34;;;;;;;;;37.00;34.33;;;;;;;;6492538;31;9101;-61
2024/04/12 05:07:37;;;;;;;;;29.67;28.67;;;;;;;;6493058;39;8901;-61
2024/04/12 05:13:42;;;;;;;;;39.67;31.67;;;;;;;;6493451;46;8937;-61
2024/04/12 05:19:53;;;;;;;;;35.00;32.33;;;;;;;;6493439;31;9076;-62
2024/04/12 05:26:20;;;;;;;;;30.00;28.00;;;;;;;;6492719;39;8960;-62
2024/04/12 05:32:32;;;;;;;;;29.33;26.00;;;;;;;;6492505;39;8936;-62
2024/04/12 05:38:37;;;;;;;;;20.67;19.67;;;;;;;;6493010;39;8879;-63
2024/04/12 05:44:46;;;;;;;;;28.00;26.33;;;;;;;;6489643;46;8966;-63
2024/04/12 05:50:56;;;;;;;;;25.00;22.33;;;;;;;;6489090;39;8918;-62
2024/04/12 05:57:03;;;;;;;;;23.00;22.67;;;;;;;;6490172;31;9039;-63
2024/04/12 06:03:07;;;;;;;;;18.67;18.00;;;;;;;;6488883;47;8971;-63
2024/04/12 06:09:27;;;;;;;;;16.33;15.67;;;;;;;;6490916;39;8973;-62
2024/04/12 06:15:36;;;;;;;;;12.00;11.00;;;;;;;;6489227;46;8925;-62
2024/04/12 06:21:47;;;;;;;;;13.33;13.00;;;;;;;;6487296;47;8918;-65
2024/04/12 06:28:03;;;;;;;;;15.00;15.00;;;;;;;;6488282;31;8914;-63
2024/04/12 06:34:17;;;;;;;;;15.67;15.67;;;;;;;;6488613;39;8931;-61
2024/04/12 06:40:31;;;;;;;;;16.00;14.00;;;;;;;;6489655;39;8971;-65
2024/04/12 06:47:05;;;;;;;;;18.00;15.33;;;;;;;;6481898;31;9109;-72
2024/04/12 06:53:25;;;;;;;;;35.00;33.00;;;;;;;;6486808;31;8947;-78
2024/04/12 06:59:46;;;;;;;;;57.00;45.33;;;;;;;;6484321;39;8953;-74
2024/04/12 07:12:43;;;;;;;;;25.33;22.33;;;;;;;;6489248;39;8928;-73
2024/04/12 07:19:18;;;;;;;;;47.33;39.33;;;;;;;;6485608;31;8981;-76
2024/04/12 07:25:40;;;;;;;;;15.00;12.00;;;;;;;;6488247;39;9626;-75
2024/04/12 07:32:23;;;;;;;;;32.00;26.50;;;;;;;;6489094;39;8992;-75
2024/04/12 07:38:31;;;;;;;;;24.67;23.33;;;;;;;;6488041;39;8974;-73
2024/04/12 07:44:52;;;;;;;;;31.00;30.00;;;;;;;;6488254;39;9080;-76
2024/04/12 07:51:49;;;;;;;;;23.67;21.00;;;;;;;;6503780;31;9141;-75
2024/04/12 07:58:42;;;;;;;;;10.75;10.00;;;;;;;;6497490;39;8971;-79
2024/04/12 08:05:14;;;;;;;;;11.50;11.25;;;;;;;;6487258;31;9150;-77
2024/04/12 08:11:52;;;;;;;;;13.00;13.00;;;;;;;;6486716;39;8976;-79
2024/04/12 08:19:45;;;;;;;;;28.33;27.00;;;;;;;;6487312;31;9044;-77
2024/04/12 08:26:52;;;;;;;;;28.75;26.25;;;;;;;;6487947;31;9048;-75
2024/04/12 08:33:23;;;;;;;;;13.00;11.50;;;;;;;;6489307;39;9039;-77
2024/04/12 08:40:10;;;;;;;;;10.00;10.00;;;;;;;;6492503;39;8966;-74
2024/04/12 08:46:57;;;;;;;;;14.50;13.75;;;;;;;;6490187;39;8997;-71
2024/04/12 09:00:08;;;;;;;;;38.00;32.00;;;;;;;;6489982;31;9061;-73
2024/04/12 09:06:23;;;;;;;;;16.00;15.50;;;;;;;;6488673;39;8939;-73
2024/04/12 09:13:00;;;;;;;;;13.25;13.25;;;;;;;;6487013;39;9626;-75
2024/04/12 09:19:28;;;;;;;;;19.00;17.00;;;;;;;;6486879;31;8934;-75
2024/04/12 09:25:55;;;;;;;;;12.00;9.75;;;;;;;;6480296;39;8981;-73
2024/04/12 09:38:39;;;;;;;;;10.00;10.00;;;;;;;;6487707;39;8976;-74
2024/04/12 09:45:53;;;;;;;;;28.25;27.00;;;;;;;;6488634;31;9080;-74
2024/04/12 10:40:24;;;;;;;;;19.25;18.25;;;;;;;;6492358;46;9017;-76
2024/04/12 10:47:12;;;;;;;;;14.50;12.50;;;;;;;;6491927;46;8988;-76
2024/04/12 10:53:29;;;;;;;;;14.25;14.25;;;;;;;;6491146;39;8974;-76
2024/04/12 11:00:35;;;;;;;;;15.75;14.75;;;;;;;;6491032;39;8983;-78
2024/04/12 11:06:46;;;;;;;;;13.50;13.50;;;;;;;;6490919;46;9063;-77
2024/04/12 11:13:26;;;;;;;;;16.25;15.00;;;;;;;;6490877;39;8937;-78
2024/04/12 11:33:05;;;;;;;;;17.25;16.75;;;;;;;;6487233;31;8940;-77
2024/04/12 11:39:56;;;;;;;;;16.00;14.50;;;;;;;;6484249;39;8965;-77
2024/04/12 11:46:14;;;;;;;;;14.25;13.00;;;;;;;;6481332;39;8947;-78
2024/04/12 11:53:10;;;;;;;;;10.25;10.00;;;;;;;;6483031;46;8919;-74
2024/04/12 11:59:23;;;;;;;;;17.25;17.00;;;;;;;;6484813;31;8982;-76
2024/04/12 12:06:06;;;;;;;;;13.67;13.33;;;;;;;;6484980;31;9009;-77
2024/04/12 12:12:41;;;;;;;;;19.25;17.75;;;;;;;;6488788;46;8927;-74
2024/04/12 12:18:47;;;;;;;;;16.75;16.25;;;;;;;;6492450;31;8938;-72
2024/04/12 12:25:16;;;;;;;;;14.50;14.25;;;;;;;;6503333;46;9037;-75
2024/04/12 12:31:26;;;;;;;;;14.25;11.50;;;;;;;;6489378;39;8911;-76
2024/04/12 12:38:11;;;;;;;;;13.75;12.00;;;;;;;;6494963;46;9001;-74
2024/04/12 12:44:34;;;;;;;;;16.25;16.25;;;;;;;;6490469;31;9041;-76
2024/04/12 12:51:29;;;;;;;;;25.00;22.75;;;;;;;;6490428;39;8964;-75
2024/04/12 12:57:49;;;;;;;;;19.25;17.00;;;;;;;;6489623;39;8976;-74
2024/04/12 13:03:58;;;;;;;;;12.75;12.75;;;;;;;;6484947;39;8978;-75
2024/04/12 13:10:20;;;;;;;;;14.50;14.25;;;;;;;;6489974;46;8928;-75
2024/04/12 13:16:43;;;;;;;;;13.25;12.50;;;;;;;;6489214;39;8945;-74
2024/04/12 13:23:14;;;;;;;;;18.00;16.50;;;;;;;;6483432;46;9005;-75
2024/04/12 13:37:21;;;;;;;;;12.50;11.75;;;;;;;;6486235;31;8941;-76
2024/04/12 13:51:34;;;;;;;;;38.67;33.67;;;;;;;;6485740;39;9024;-78
2024/04/12 13:58:12;;;;;;;;;16.00;16.00;;;;;;;;6486933;46;8947;-76
2024/04/12 14:04:28;;;;;;;;;22.75;22.25;;;;;;;;6486136;39;8994;-76
2024/04/12 14:11:10;;;;;;;;;20.50;18.75;;;;;;;;6487260;39;8970;-76
2024/04/12 14:17:32;;;;;;;;;19.50;18.75;;;;;;;;6486323;47;8927;-77
2024/04/12 14:25:01;;;;;;;;;12.50;12.50;;;;;;;;6485209;39;9018;-64
2024/04/12 14:31:10;;;;;;;;;13.25;12.25;;;;;;;;6484957;39;9617;-63
2024/04/12 14:37:15;;;;;;;;;35.25;29.00;;;;;;;;6486348;39;8882;-64
2024/04/12 14:43:25;;;;;;;;;17.25;16.75;;;;;;;;6511176;36;8953;-64
2024/04/12 14:49:49;;;;;;;;;25.50;25.00;;;;;;;;6486620;39;8881;-67
2024/04/12 14:55:57;;;;;;;;;39.25;34.25;;;;;;;;6484536;39;9533;-62
2024/04/12 15:02:05;;;;;;;;;19.25;18.25;;;;;;;;6483532;47;8961;-63
2024/04/12 15:53:29;;;;;;;;;24.50;19.50;;;;;;;;6491308;39;8869;-63
2024/04/12 16:13:03;;;;;;;;;26.25;24.25;;;;;;;;6490663;39;8987;-63
2024/04/12 16:19:07;;;;;;;;;16.50;16.50;;;;;;;;6490696;31;8912;-62
2024/04/12 16:25:14;;;;;;;;;20.50;19.25;;;;;;;;6489994;46;8969;-63
2024/04/12 16:31:20;;;;;;;;;18.33;17.00;;;;;;;;6489845;31;8984;-62
2024/04/12 16:37:27;;;;;;;;;15.00;15.00;;;;;;;;6489401;39;8942;-61
2024/04/12 16:43:36;;;;;;;;;22.00;18.25;;;;;;;;6514743;36;8842;-63
2024/04/12 16:49:41;;;;;;;;;23.00;21.75;;;;;;;;6489987;39;9025;-62
2024/04/12 16:55:44;;;;;;;;;22.67;22.00;;;;;;;;6489561;39;8917;-63
2024/04/12 17:01:51;;;;;;;;;18.00;17.25;;;;;;;;6489508;39;8963;-63
2024/04/12 17:08:31;;;;;;;;;18.50;18.50;;;;;;;;6490048;39;8956;-62
2024/04/12 17:14:35;;;;;;;;;20.67;19.00;;;;;;;;6488764;39;8906;-63
2024/04/12 17:21:02;;;;;;;;;19.50;19.00;;;;;;;;6489766;39;8901;-62
2024/04/12 17:27:13;;;;;;;;;22.33;21.00;;;;;;;;6489382;39;8885;-61
2024/04/12 17:33:30;;;;;;;;;22.67;22.33;;;;;;;;6490315;39;8880;-62
2024/04/12 17:39:35;;;;;;;;;24.67;20.67;;;;;;;;6489730;39;8898;-61
2024/04/12 17:45:43;;;;;;;;;23.33;22.00;;;;;;;;6488683;46;8920;-62
2024/04/12 17:51:45;;;;;;;;;24.67;22.33;;;;;;;;6489454;46;8885;-62
2024/04/12 17:58:04;;;;;;;;;28.00;26.50;;;;;;;;6489383;39;8853;-63
2024/04/12 18:04:12;;;;;;;;;26.00;22.33;;;;;;;;6489609;39;8958;-62
2024/04/12 18:10:24;;;;;;;;;28.67;24.33;;;;;;;;6488412;31;8884;-61
2024/04/12 18:16:33;;;;;;;;;30.00;28.67;;;;;;;;6489878;39;8874;-62
2024/04/12 18:22:52;;;;;;;;;23.00;22.00;;;;;;;;6488225;39;9011;-62
2024/04/12 18:28:57;;;;;;;;;22.33;21.33;;;;;;;;6488887;47;8870;-63
2024/04/12 18:35:10;;;;;;;;;26.00;25.00;;;;;;;;6489206;39;8908;-63
2024/04/12 18:47:37;;;;;;;;;28.33;24.67;;;;;;;;6489058;47;9024;-62
2024/04/12 18:53:45;;;;;;;;;31.33;29.00;;;;;;;;6488577;39;8893;-63
2024/04/12 18:59:48;;;;;;;;;24.00;22.00;;;;;;;;6490527;46;8964;-63
2024/04/12 19:06:17;;;;;;;;;30.33;26.67;;;;;;;;6490968;39;8914;-62
2024/04/12 19:12:23;;;;;;;;;27.67;25.00;;;;;;;;6491056;39;9520;-62
2024/04/12 19:18:27;;;;;;;;;27.00;24.00;;;;;;;;6490515;39;8866;-61
2024/04/12 19:24:53;;;;;;;;;32.00;29.67;;;;;;;;6490700;39;9007;-63
2024/04/12 19:31:01;;;;;;;;;27.00;26.67;;;;;;;;6490990;39;9659;-63
2024/04/12 19:37:07;;;;;;;;;30.00;27.33;;;;;;;;6490589;39;9012;-61
2024/04/12 19:43:10;;;;;;;;;28.67;26.00;;;;;;;;6490518;31;9013;-62
2024/04/12 19:49:37;;;;;;;;;36.67;34.00;;;;;;;;6489839;39;8909;-62
2024/04/12 19:55:43;;;;;;;;;32.33;30.67;;;;;;;;6490322;39;8995;-62
2024/04/12 20:01:48;;;;;;;;;28.67;28.67;;;;;;;;6489957;46;8929;-61
2024/04/12 20:08:06;;;;;;;;;32.00;31.33;;;;;;;;6490332;31;8917;-62
2024/04/12 20:14:11;;;;;;;;;31.00;27.67;;;;;;;;6490739;39;8916;-62
2024/04/12 20:20:19;;;;;;;;;25.50;24.50;;;;;;;;6489978;39;8942;-63
2024/04/12 20:26:49;;;;;;;;;30.00;30.00;;;;;;;;6489693;46;8888;-63
2024/04/12 20:33:03;;;;;;;;;28.00;26.00;;;;;;;;6489621;39;8910;-62
2024/04/12 20:39:31;;;;;;;;;30.00;27.33;;;;;;;;6489420;46;8865;-62
2024/04/12 20:45:43;;;;;;;;;26.33;24.33;;;;;;;;6489987;39;8984;-63
2024/04/12 20:52:06;;;;;;;;;23.33;21.00;;;;;;;;6490116;31;8912;-62
2024/04/12 20:58:20;;;;;;;;;23.67;23.00;;;;;;;;6490690;46;8910;-62
2024/04/12 21:04:23;;;;;;;;;25.33;25.33;;;;;;;;6490937;39;8920;-62
2024/04/12 21:10:41;;;;;;;;;25.67;22.33;;;;;;;;6489044;39;8914;-62
2024/04/12 21:16:50;;;;;;;;;26.67;22.33;;;;;;;;6489769;39;8897;-63
2024/04/12 21:22:55;;;;;;;;;25.00;24.33;;;;;;;;6489188;46;8955;-63
2024/04/12 21:29:04;;;;;;;;;25.33;22.67;;;;;;;;6490042;39;8920;-62
2024/04/12 21:35:26;;;;;;;;;22.33;20.00;;;;;;;;6489667;39;8898;-62
2024/04/12 21:41:33;;;;;;;;;19.33;19.33;;;;;;;;6488949;31;9060;-62
2024/04/12 21:47:49;;;;;;;;;18.00;17.67;;;;;;;;6490428;39;8929;-62
2024/04/12 21:54:01;;;;;;;;;22.33;22.00;;;;;;;;6490295;31;8964;-61
2024/04/12 22:00:16;;;;;;;;;27.33;25.00;;;;;;;;6489422;39;8902;-62
2024/04/12 22:06:24;;;;;;;;;25.33;21.67;;;;;;;;6488761;39;9782;-63
2024/04/12 22:12:27;;;;;;;;;24.67;21.67;;;;;;;;6488504;31;9640;-61
2024/04/12 22:18:38;;;;;;;;;23.67;21.00;;;;;;;;6489848;39;8876;-63
2024/04/12 22:24:57;;;;;;;;;20.67;18.00;;;;;;;;6488972;39;8910;-63
2024/04/12 22:31:05;;;;;;;;;19.67;18.67;;;;;;;;6489682;46;8932;-61
2024/04/12 22:37:12;;;;;;;;;22.00;22.00;;;;;;;;6491744;39;9633;-63
2024/04/12 22:43:29;;;;;;;;;26.00;22.67;;;;;;;;6490628;46;8933;-61
2024/04/12 22:49:34;;;;;;;;;21.33;21.33;;;;;;;;6492261;39;9628;-64
2024/04/12 22:55:41;;;;;;;;;22.67;20.00;;;;;;;;6491101;39;8873;-63
2024/04/12 23:02:00;;;;;;;;;18.67;18.67;;;;;;;;6489887;39;9039;-62
2024/04/12 23:08:08;;;;;;;;;19.00;19.00;;;;;;;;6491151;39;8877;-60
2024/04/12 23:14:13;;;;;;;;;20.33;19.33;;;;;;;;6491732;39;8851;-62
2024/04/12 23:20:22;;;;;;;;;25.67;22.00;;;;;;;;6490931;39;8897;-62
2024/04/12 23:26:28;;;;;;;;;19.00;19.00;;;;;;;;6490553;39;9544;-62
2024/04/12 23:32:36;;;;;;;;;18.67;16.67;;;;;;;;6490538;39;8897;-63
2024/04/12 23:38:45;;;;;;;;;17.00;14.33;;;;;;;;6490611;39;8886;-62
2024/04/12 23:44:55;;;;;;;;;19.00;16.67;;;;;;;;6490627;39;8952;-62
2024/04/12 23:50:58;;;;;;;;;14.00;13.33;;;;;;;;6490371;39;8902;-62
2024/04/12 23:57:27;;;;;;;;;19.67;18.67;;;;;;;;6489104;46;8925;-62
